North Plains, OR (97133)

11:56 PM PDT on October 21, 2014 (GMT -0700)
Mason Hill | Change Station
CLOSE
Current Station
Personal Weather Station
Location: North Plains, OR
Elevation: 441 ft
Nearby Weather Stations
Active Advisory: Special Statement

Elev 441 ft 45.62 °N, 122.95 °W | Updated 2 minutes ago

Rain
Rain
54.3 °F
Feels Like 54.3 °F
N
1.3
Wind Variable Wind from SW
Gusts 1.9 mph

Today
High -- | Low -- °F
--% Chance of Precip.
Yesterday
High -- | Low -- °F
Precip. -- in
7:36 AM 6:15 PM
Waning Crescent, 3% visible
Pressure 29.85 in
Visibility 10.0 miles
Clouds Mostly Cloudy 7000 ft
Overcast 10000 ft
Dew Point 49 °F
Humidity 81%
Rainfall 0.12 in
Snow Depth 0 in
UV 0 out of 12
Pollen 1.10 out of 12
Ozone Good
PM2.5 Moderate
Flu Activity Sporadic
METAR KHIO 220553Z AUTO 16009KT 10SM -RA BKN070 OVC100 13/09 A2985 RMK AO2 RAB02E11B38 SLP106 P0000 60000 T01330094 10150 20133 56014 TSNO

More Conditions Fewer Conditions

Pressure 29.85 in
Visibility 10.0 miles
Clouds Mostly Cloudy 7000 ft
Overcast 10000 ft
Dew Point 49 °F
Humidity 81%
Rainfall 0.12 in
Snow Depth 0 in
UV 0 out of 12
Pollen 1.10 out of 12
Ozone Good
PM2.5 Moderate
Flu Activity Sporadic
METAR KHIO 220553Z AUTO 16009KT 10SM -RA BKN070 OVC100 13/09 A2985 RMK AO2 RAB02E11B38 SLP106 P0000 60000 T01330094 10150 20133 56014 TSNO

More Conditions Fewer Conditions

10-Day Weather Forecast

Almanac

Astronomy

Oct. 21, 2014 Rise Set
Actual Time 7:36 AM PDT 6:15 PM PDT
Civil Twilight 7:06 AM PDT 6:46 PM PDT
Nautical Twilight 6:31 AM PDT 7:20 PM PDT
Astronomical Twilight 5:57 AM PDT 7:54 PM PDT
Moon 5:19 AM PDT (10/21) 5:17 PM PDT (10/21)
Length of Visible Light 11h 39m
Length of Day
10h 39m
Tomorrow will be 3m 0s shorter.
Waning Crescent, 3% of the Moon is Illuminated
Oct 22
Waning Crescent
Oct 23
New
Oct 30
First Quarter
Nov 6
Full
Nov 14
Last Quarter

Yesterday's Extremes

State Highs State Lows

Community

WunderPhotos

Upload Photos

1,763,884 photos uploaded!

Nearby

Air Quality

  Air Quality AQ Index Pollutant
Yesterday Good
OZONE
Yesterday Good
PM2.5
Current Moderate
PM2.5
Current Good
OZONE
Tuesday Good
PM2.5
Wednesday Good
PM2.5

Snow Depth

Station Depth Elevation
Seine Creek 0 in 2000 ft
North Fork 0 in 3120 ft
Greenpoint 0 in 3200 ft
Red Hill 0 in 4400 ft
Peavine Ridge 0 in 3500 ft

Earthquake Activity

City Distance Mag. Time & Date
No recent earthquake activity has been reported nearby.
Minimum magnitude displayed is 2.5.

Coastal Water Temperatures

Place Temperature
No Stations Reporting

Nearby Weather Stations